sensor_id;sensor_type;location;lat;lon;timestamp;temperature;humidity
14873;DHT22;7528;48.576;19.122;2022-09-09T00:01:53;21.90;91.30
14873;DHT22;7528;48.576;19.122;2022-09-09T00:07:04;21.70;91.70
14873;DHT22;7528;48.576;19.122;2022-09-09T00:12:11;21.60;92.40
14873;DHT22;7528;48.576;19.122;2022-09-09T00:17:23;21.60;92.40
14873;DHT22;7528;48.576;19.122;2022-09-09T00:22:31;21.50;92.20
14873;DHT22;7528;48.576;19.122;2022-09-09T00:27:43;21.50;91.20
14873;DHT22;7528;48.576;19.122;2022-09-09T00:32:49;21.30;90.70
14873;DHT22;7528;48.576;19.122;2022-09-09T00:37:56;21.20;90.90
14873;DHT22;7528;48.576;19.122;2022-09-09T00:43:16;21.30;90.40
14873;DHT22;7528;48.576;19.122;2022-09-09T00:48:27;21.20;90.00
14873;DHT22;7528;48.576;19.122;2022-09-09T00:54:05;21.00;90.50
14873;DHT22;7528;48.576;19.122;2022-09-09T00:59:24;21.00;90.80
14873;DHT22;7528;48.576;19.122;2022-09-09T01:04:33;21.00;90.00
14873;DHT22;7528;48.576;19.122;2022-09-09T01:09:50;20.90;88.30
14873;DHT22;7528;48.576;19.122;2022-09-09T01:15:03;20.50;88.20
14873;DHT22;7528;48.576;19.122;2022-09-09T01:20:13;20.50;88.90
14873;DHT22;7528;48.576;19.122;2022-09-09T01:31:19;20.40;87.70
14873;DHT22;7528;48.576;19.122;2022-09-09T01:36:29;20.30;88.00
14873;DHT22;7528;48.576;19.122;2022-09-09T01:41:35;20.30;89.70
14873;DHT22;7528;48.576;19.122;2022-09-09T01:46:42;20.30;89.20
14873;DHT22;7528;48.576;19.122;2022-09-09T01:51:57;20.30;88.00
14873;DHT22;7528;48.576;19.122;2022-09-09T01:57:10;20.30;89.10
14873;DHT22;7528;48.576;19.122;2022-09-09T02:02:25;20.10;90.00
14873;DHT22;7528;48.576;19.122;2022-09-09T02:07:56;20.20;90.10
14873;DHT22;7528;48.576;19.122;2022-09-09T02:13:11;20.10;89.80
14873;DHT22;7528;48.576;19.122;2022-09-09T02:18:21;20.10;90.00
14873;DHT22;7528;48.576;19.122;2022-09-09T02:23:28;20.00;90.10
14873;DHT22;7528;48.576;19.122;2022-09-09T02:28:33;20.00;90.00
14873;DHT22;7528;48.576;19.122;2022-09-09T02:33:41;19.90;90.10
14873;DHT22;7528;48.576;19.122;2022-09-09T02:38:48;19.90;90.10
14873;DHT22;7528;48.576;19.122;2022-09-09T02:43:57;19.80;90.30
14873;DHT22;7528;48.576;19.122;2022-09-09T02:49:05;19.80;90.10
14873;DHT22;7528;48.576;19.122;2022-09-09T02:54:20;19.70;90.20
14873;DHT22;7528;48.576;19.122;2022-09-09T02:59:25;19.70;90.20
14873;DHT22;7528;48.576;19.122;2022-09-09T03:04:30;19.60;90.20
14873;DHT22;7528;48.576;19.122;2022-09-09T03:09:34;19.60;90.10
14873;DHT22;7528;48.576;19.122;2022-09-09T03:14:37;19.50;90.00
14873;DHT22;7528;48.576;19.122;2022-09-09T03:19:41;19.40;90.10
14873;DHT22;7528;48.576;19.122;2022-09-09T03:24:45;19.40;90.20
14873;DHT22;7528;48.576;19.122;2022-09-09T03:29:50;19.40;90.10
14873;DHT22;7528;48.576;19.122;2022-09-09T03:34:58;19.30;90.10
14873;DHT22;7528;48.576;19.122;2022-09-09T03:40:02;19.20;90.40
14873;DHT22;7528;48.576;19.122;2022-09-09T03:45:07;19.20;90.30
14873;DHT22;7528;48.576;19.122;2022-09-09T03:50:15;19.20;90.10
14873;DHT22;7528;48.576;19.122;2022-09-09T03:55:22;19.10;90.20
14873;DHT22;7528;48.576;19.122;2022-09-09T04:00:25;19.00;90.30
14873;DHT22;7528;48.576;19.122;2022-09-09T04:05:30;19.00;90.40
14873;DHT22;7528;48.576;19.122;2022-09-09T04:10:35;19.00;90.50
14873;DHT22;7528;48.576;19.122;2022-09-09T04:15:40;19.00;90.50
14873;DHT22;7528;48.576;19.122;2022-09-09T04:20:46;19.00;90.40
14873;DHT22;7528;48.576;19.122;2022-09-09T04:25:51;19.00;90.60
14873;DHT22;7528;48.576;19.122;2022-09-09T04:30:54;18.90;90.80
14873;DHT22;7528;48.576;19.122;2022-09-09T04:36:01;18.90;90.70
14873;DHT22;7528;48.576;19.122;2022-09-09T04:41:05;18.90;90.90
14873;DHT22;7528;48.576;19.122;2022-09-09T04:46:10;18.90;90.70
14873;DHT22;7528;48.576;19.122;2022-09-09T04:51:15;18.90;90.80
14873;DHT22;7528;48.576;19.122;2022-09-09T04:56:20;19.00;90.90
14873;DHT22;7528;48.576;19.122;2022-09-09T05:01:28;19.00;91.20
14873;DHT22;7528;48.576;19.122;2022-09-09T05:06:38;19.00;91.40
14873;DHT22;7528;48.576;19.122;2022-09-09T05:11:41;19.00;91.50
14873;DHT22;7528;48.576;19.122;2022-09-09T05:17:05;19.20;92.00
14873;DHT22;7528;48.576;19.122;2022-09-09T05:22:12;19.20;91.80
14873;DHT22;7528;48.576;19.122;2022-09-09T05:27:20;19.40;91.70
14873;DHT22;7528;48.576;19.122;2022-09-09T05:32:24;19.40;91.80
14873;DHT22;7528;48.576;19.122;2022-09-09T05:37:30;19.50;91.80
14873;DHT22;7528;48.576;19.122;2022-09-09T05:42:34;19.50;91.80
14873;DHT22;7528;48.576;19.122;2022-09-09T05:47:37;19.60;91.90
14873;DHT22;7528;48.576;19.122;2022-09-09T05:52:44;19.70;91.70
14873;DHT22;7528;48.576;19.122;2022-09-09T05:57:48;19.80;91.40
14873;DHT22;7528;48.576;19.122;2022-09-09T06:02:53;19.80;90.90
14873;DHT22;7528;48.576;19.122;2022-09-09T06:07:58;19.90;90.90
14873;DHT22;7528;48.576;19.122;2022-09-09T06:13:01;19.80;90.70
14873;DHT22;7528;48.576;19.122;2022-09-09T06:18:05;19.90;91.00
14873;DHT22;7528;48.576;19.122;2022-09-09T06:23:09;20.00;90.60
14873;DHT22;7528;48.576;19.122;2022-09-09T06:28:13;20.20;90.10
14873;DHT22;7528;48.576;19.122;2022-09-09T06:33:16;20.20;86.40
14873;DHT22;7528;48.576;19.122;2022-09-09T06:38:21;20.20;87.30
14873;DHT22;7528;48.576;19.122;2022-09-09T06:43:25;20.40;87.50
14873;DHT22;7528;48.576;19.122;2022-09-09T06:48:30;20.40;86.70
14873;DHT22;7528;48.576;19.122;2022-09-09T06:53:37;20.50;87.40
14873;DHT22;7528;48.576;19.122;2022-09-09T06:58:41;20.50;87.20
14873;DHT22;7528;48.576;19.122;2022-09-09T07:03:50;20.60;87.00
14873;DHT22;7528;48.576;19.122;2022-09-09T07:08:56;20.50;86.30
14873;DHT22;7528;48.576;19.122;2022-09-09T07:14:02;20.50;86.70
14873;DHT22;7528;48.576;19.122;2022-09-09T07:19:05;20.80;87.00
14873;DHT22;7528;48.576;19.122;2022-09-09T07:24:11;21.00;88.20
14873;DHT22;7528;48.576;19.122;2022-09-09T07:29:16;21.10;84.20
14873;DHT22;7528;48.576;19.122;2022-09-09T07:34:19;21.40;84.60
14873;DHT22;7528;48.576;19.122;2022-09-09T07:39:24;21.60;83.50
14873;DHT22;7528;48.576;19.122;2022-09-09T07:44:29;22.10;84.90
14873;DHT22;7528;48.576;19.122;2022-09-09T07:49:41;22.40;80.40
14873;DHT22;7528;48.576;19.122;2022-09-09T07:54:46;22.80;78.10
14873;DHT22;7528;48.576;19.122;2022-09-09T07:59:49;22.90;78.90
14873;DHT22;7528;48.576;19.122;2022-09-09T08:04:53;23.20;77.30
14873;DHT22;7528;48.576;19.122;2022-09-09T08:09:58;23.50;76.40
14873;DHT22;7528;48.576;19.122;2022-09-09T08:15:06;23.80;75.70
14873;DHT22;7528;48.576;19.122;2022-09-09T08:20:09;24.40;74.30
14873;DHT22;7528;48.576;19.122;2022-09-09T08:25:15;24.70;72.30
14873;DHT22;7528;48.576;19.122;2022-09-09T08:30:18;25.10;67.30
14873;DHT22;7528;48.576;19.122;2022-09-09T08:35:21;25.40;64.20
14873;DHT22;7528;48.576;19.122;2022-09-09T08:40:29;25.70;63.20
14873;DHT22;7528;48.576;19.122;2022-09-09T08:45:39;25.80;62.80
14873;DHT22;7528;48.576;19.122;2022-09-09T08:50:49;25.80;61.20
14873;DHT22;7528;48.576;19.122;2022-09-09T08:56:02;26.10;61.20
14873;DHT22;7528;48.576;19.122;2022-09-09T09:01:46;26.40;59.30
14873;DHT22;7528;48.576;19.122;2022-09-09T09:07:06;26.50;58.80
14873;DHT22;7528;48.576;19.122;2022-09-09T09:12:16;26.90;58.20
14873;DHT22;7528;48.576;19.122;2022-09-09T09:17:23;27.10;57.80
14873;DHT22;7528;48.576;19.122;2022-09-09T09:22:41;27.30;59.60
14873;DHT22;7528;48.576;19.122;2022-09-09T09:27:57;27.80;55.50
14873;DHT22;7528;48.576;19.122;2022-09-09T09:33:05;27.70;56.30
14873;DHT22;7528;48.576;19.122;2022-09-09T09:38:16;27.90;53.80
14873;DHT22;7528;48.576;19.122;2022-09-09T09:43:25;28.10;55.90
14873;DHT22;7528;48.576;19.122;2022-09-09T09:48:29;28.30;54.20
14873;DHT22;7528;48.576;19.122;2022-09-09T09:53:34;28.80;53.10
14873;DHT22;7528;48.576;19.122;2022-09-09T09:58:49;28.90;52.90
14873;DHT22;7528;48.576;19.122;2022-09-09T10:03:59;29.00;51.20
14873;DHT22;7528;48.576;19.122;2022-09-09T10:09:03;29.20;49.90
14873;DHT22;7528;48.576;19.122;2022-09-09T10:14:18;29.40;48.70
14873;DHT22;7528;48.576;19.122;2022-09-09T10:19:30;29.50;49.90
14873;DHT22;7528;48.576;19.122;2022-09-09T10:24:49;29.70;48.60
14873;DHT22;7528;48.576;19.122;2022-09-09T10:30:04;29.50;47.00
14873;DHT22;7528;48.576;19.122;2022-09-09T10:35:12;29.60;46.70
14873;DHT22;7528;48.576;19.122;2022-09-09T10:40:26;29.80;47.40
14873;DHT22;7528;48.576;19.122;2022-09-09T10:45:40;30.00;47.20
14873;DHT22;7528;48.576;19.122;2022-09-09T10:50:51;30.00;46.60
14873;DHT22;7528;48.576;19.122;2022-09-09T10:56:01;30.10;45.50
14873;DHT22;7528;48.576;19.122;2022-09-09T11:01:13;30.00;47.00
14873;DHT22;7528;48.576;19.122;2022-09-09T11:06:20;30.10;47.40
14873;DHT22;7528;48.576;19.122;2022-09-09T11:11:29;30.40;46.20
14873;DHT22;7528;48.576;19.122;2022-09-09T11:16:40;30.60;45.00
14873;DHT22;7528;48.576;19.122;2022-09-09T11:21:46;30.40;46.50
14873;DHT22;7528;48.576;19.122;2022-09-09T11:26:54;30.70;47.70
14873;DHT22;7528;48.576;19.122;2022-09-09T11:32:09;31.00;45.50
14873;DHT22;7528;48.576;19.122;2022-09-09T11:42:40;31.40;40.70
14873;DHT22;7528;48.576;19.122;2022-09-09T11:47:53;31.40;40.70
14873;DHT22;7528;48.576;19.122;2022-09-09T11:53:05;31.40;40.80
14873;DHT22;7528;48.576;19.122;2022-09-09T11:58:17;31.70;39.90
14873;DHT22;7528;48.576;19.122;2022-09-09T12:03:40;31.50;39.50
14873;DHT22;7528;48.576;19.122;2022-09-09T12:08:48;31.70;39.70
14873;DHT22;7528;48.576;19.122;2022-09-09T12:13:55;31.80;38.10
14873;DHT22;7528;48.576;19.122;2022-09-09T12:19:16;31.70;40.30
14873;DHT22;7528;48.576;19.122;2022-09-09T12:24:27;31.70;38.30
14873;DHT22;7528;48.576;19.122;2022-09-09T12:29:40;31.60;35.90
14873;DHT22;7528;48.576;19.122;2022-09-09T12:34:52;31.60;37.80
14873;DHT22;7528;48.576;19.122;2022-09-09T12:39:58;31.80;38.00
14873;DHT22;7528;48.576;19.122;2022-09-09T12:45:02;31.90;37.70
14873;DHT22;7528;48.576;19.122;2022-09-09T12:50:17;32.00;35.40
14873;DHT22;7528;48.576;19.122;2022-09-09T12:55:24;31.50;37.00
14873;DHT22;7528;48.576;19.122;2022-09-09T13:00:28;31.60;33.50
14873;DHT22;7528;48.576;19.122;2022-09-09T13:05:37;31.80;29.70
14873;DHT22;7528;48.576;19.122;2022-09-09T13:10:44;31.70;35.20
14873;DHT22;7528;48.576;19.122;2022-09-09T13:15:50;31.70;34.80
14873;DHT22;7528;48.576;19.122;2022-09-09T13:20:56;31.60;34.50
14873;DHT22;7528;48.576;19.122;2022-09-09T13:26:02;31.50;36.10
14873;DHT22;7528;48.576;19.122;2022-09-09T13:31:19;31.60;38.00
14873;DHT22;7528;48.576;19.122;2022-09-09T13:36:30;31.60;39.30
14873;DHT22;7528;48.576;19.122;2022-09-09T13:41:36;31.80;37.40
14873;DHT22;7528;48.576;19.122;2022-09-09T13:46:41;31.70;37.90
14873;DHT22;7528;48.576;19.122;2022-09-09T13:51:48;31.60;38.40
14873;DHT22;7528;48.576;19.122;2022-09-09T13:56:52;31.60;39.60
14873;DHT22;7528;48.576;19.122;2022-09-09T14:01:55;31.70;38.40
14873;DHT22;7528;48.576;19.122;2022-09-09T14:07:00;31.50;39.20
14873;DHT22;7528;48.576;19.122;2022-09-09T14:12:03;31.50;40.70
14873;DHT22;7528;48.576;19.122;2022-09-09T14:17:07;31.50;42.00
14873;DHT22;7528;48.576;19.122;2022-09-09T14:22:11;31.30;38.60
14873;DHT22;7528;48.576;19.122;2022-09-09T14:27:14;31.00;38.80
14873;DHT22;7528;48.576;19.122;2022-09-09T14:32:17;30.90;40.00
14873;DHT22;7528;48.576;19.122;2022-09-09T14:37:22;30.90;40.40
14873;DHT22;7528;48.576;19.122;2022-09-09T14:42:25;30.80;39.50
14873;DHT22;7528;48.576;19.122;2022-09-09T14:47:29;30.90;41.00
14873;DHT22;7528;48.576;19.122;2022-09-09T14:52:34;30.80;42.70
14873;DHT22;7528;48.576;19.122;2022-09-09T14:57:37;30.70;41.90
14873;DHT22;7528;48.576;19.122;2022-09-09T15:02:41;30.60;40.70
14873;DHT22;7528;48.576;19.122;2022-09-09T15:07:46;30.30;41.60
14873;DHT22;7528;48.576;19.122;2022-09-09T15:12:49;30.10;41.30
14873;DHT22;7528;48.576;19.122;2022-09-09T15:17:52;29.90;41.20
14873;DHT22;7528;48.576;19.122;2022-09-09T15:22:57;29.80;42.00
14873;DHT22;7528;48.576;19.122;2022-09-09T15:28:00;29.60;41.50
14873;DHT22;7528;48.576;19.122;2022-09-09T15:33:07;29.40;42.00
14873;DHT22;7528;48.576;19.122;2022-09-09T15:38:12;29.30;42.90
14873;DHT22;7528;48.576;19.122;2022-09-09T15:43:16;29.20;43.70
14873;DHT22;7528;48.576;19.122;2022-09-09T15:48:19;29.10;47.00
14873;DHT22;7528;48.576;19.122;2022-09-09T15:53:25;29.00;46.60
14873;DHT22;7528;48.576;19.122;2022-09-09T15:58:30;28.80;45.30
14873;DHT22;7528;48.576;19.122;2022-09-09T16:03:34;28.80;48.00
14873;DHT22;7528;48.576;19.122;2022-09-09T16:08:41;28.60;47.60
14873;DHT22;7528;48.576;19.122;2022-09-09T16:13:45;28.60;46.90
14873;DHT22;7528;48.576;19.122;2022-09-09T16:18:50;28.50;47.10
14873;DHT22;7528;48.576;19.122;2022-09-09T16:23:55;28.20;50.90
14873;DHT22;7528;48.576;19.122;2022-09-09T16:29:00;27.90;50.70
14873;DHT22;7528;48.576;19.122;2022-09-09T16:34:04;27.90;52.10
14873;DHT22;7528;48.576;19.122;2022-09-09T16:39:10;27.70;52.90
14873;DHT22;7528;48.576;19.122;2022-09-09T16:44:14;27.70;53.00
14873;DHT22;7528;48.576;19.122;2022-09-09T16:49:20;27.50;53.10
14873;DHT22;7528;48.576;19.122;2022-09-09T16:54:24;27.20;54.30
14873;DHT22;7528;48.576;19.122;2022-09-09T16:59:28;27.10;54.70
14873;DHT22;7528;48.576;19.122;2022-09-09T17:04:33;26.90;55.10
14873;DHT22;7528;48.576;19.122;2022-09-09T17:09:37;26.70;55.50
14873;DHT22;7528;48.576;19.122;2022-09-09T17:14:40;26.50;55.70
14873;DHT22;7528;48.576;19.122;2022-09-09T17:19:43;26.50;56.40
14873;DHT22;7528;48.576;19.122;2022-09-09T17:24:47;26.20;57.00
14873;DHT22;7528;48.576;19.122;2022-09-09T17:29:50;26.00;58.30
14873;DHT22;7528;48.576;19.122;2022-09-09T17:34:53;26.00;57.90
14873;DHT22;7528;48.576;19.122;2022-09-09T17:39:58;26.00;58.40
14873;DHT22;7528;48.576;19.122;2022-09-09T17:45:01;25.90;58.20
14873;DHT22;7528;48.576;19.122;2022-09-09T17:50:05;25.80;58.80
14873;DHT22;7528;48.576;19.122;2022-09-09T17:55:10;25.70;59.30
14873;DHT22;7528;48.576;19.122;2022-09-09T18:00:13;25.60;60.00
14873;DHT22;7528;48.576;19.122;2022-09-09T18:05:19;25.40;60.60
14873;DHT22;7528;48.576;19.122;2022-09-09T18:10:23;25.30;60.60
14873;DHT22;7528;48.576;19.122;2022-09-09T18:15:26;25.20;61.10
14873;DHT22;7528;48.576;19.122;2022-09-09T18:20:30;25.10;61.20
14873;DHT22;7528;48.576;19.122;2022-09-09T18:25:38;25.10;61.90
14873;DHT22;7528;48.576;19.122;2022-09-09T18:30:41;24.80;62.40
14873;DHT22;7528;48.576;19.122;2022-09-09T18:35:44;24.80;62.00
14873;DHT22;7528;48.576;19.122;2022-09-09T18:40:50;24.60;62.40
14873;DHT22;7528;48.576;19.122;2022-09-09T18:45:53;24.50;62.60
14873;DHT22;7528;48.576;19.122;2022-09-09T18:51:01;24.40;63.10
14873;DHT22;7528;48.576;19.122;2022-09-09T18:56:08;24.30;63.80
14873;DHT22;7528;48.576;19.122;2022-09-09T19:01:13;24.20;64.60
14873;DHT22;7528;48.576;19.122;2022-09-09T19:06:18;24.00;64.40
14873;DHT22;7528;48.576;19.122;2022-09-09T19:11:25;24.10;63.40
14873;DHT22;7528;48.576;19.122;2022-09-09T19:16:29;24.10;64.00
14873;DHT22;7528;48.576;19.122;2022-09-09T19:21:34;24.10;63.60
14873;DHT22;7528;48.576;19.122;2022-09-09T19:26:42;23.90;63.60
14873;DHT22;7528;48.576;19.122;2022-09-09T19:31:46;23.80;64.40
14873;DHT22;7528;48.576;19.122;2022-09-09T19:36:49;23.70;64.30
14873;DHT22;7528;48.576;19.122;2022-09-09T19:41:54;23.70;63.90
14873;DHT22;7528;48.576;19.122;2022-09-09T19:46:57;23.70;64.80
14873;DHT22;7528;48.576;19.122;2022-09-09T19:52:01;23.80;64.60
14873;DHT22;7528;48.576;19.122;2022-09-09T19:57:06;23.50;66.00
14873;DHT22;7528;48.576;19.122;2022-09-09T20:02:11;23.50;65.80
14873;DHT22;7528;48.576;19.122;2022-09-09T20:07:15;23.30;66.30
14873;DHT22;7528;48.576;19.122;2022-09-09T20:12:21;23.10;67.30
14873;DHT22;7528;48.576;19.122;2022-09-09T20:17:23;23.00;67.90
14873;DHT22;7528;48.576;19.122;2022-09-09T20:22:26;22.80;68.60
14873;DHT22;7528;48.576;19.122;2022-09-09T20:27:31;22.80;68.30
14873;DHT22;7528;48.576;19.122;2022-09-09T20:32:34;22.80;68.50
14873;DHT22;7528;48.576;19.122;2022-09-09T20:37:39;22.70;68.60
14873;DHT22;7528;48.576;19.122;2022-09-09T20:42:44;22.70;69.00
14873;DHT22;7528;48.576;19.122;2022-09-09T20:47:47;22.60;69.80
14873;DHT22;7528;48.576;19.122;2022-09-09T20:52:51;22.50;70.40
14873;DHT22;7528;48.576;19.122;2022-09-09T20:57:55;22.50;70.80
14873;DHT22;7528;48.576;19.122;2022-09-09T21:03:00;22.60;70.30
14873;DHT22;7528;48.576;19.122;2022-09-09T21:08:03;22.60;70.50
14873;DHT22;7528;48.576;19.122;2022-09-09T21:13:08;22.40;71.40
14873;DHT22;7528;48.576;19.122;2022-09-09T21:18:11;22.40;71.40
14873;DHT22;7528;48.576;19.122;2022-09-09T21:23:15;22.40;71.80
14873;DHT22;7528;48.576;19.122;2022-09-09T21:28:20;22.30;71.70
14873;DHT22;7528;48.576;19.122;2022-09-09T21:33:25;22.40;71.40
14873;DHT22;7528;48.576;19.122;2022-09-09T21:38:28;22.30;71.30
14873;DHT22;7528;48.576;19.122;2022-09-09T21:43:33;22.20;72.70
14873;DHT22;7528;48.576;19.122;2022-09-09T21:48:36;22.20;73.10
14873;DHT22;7528;48.576;19.122;2022-09-09T21:53:39;22.20;74.70
14873;DHT22;7528;48.576;19.122;2022-09-09T21:58:44;22.20;76.20
14873;DHT22;7528;48.576;19.122;2022-09-09T22:03:47;22.20;77.20
14873;DHT22;7528;48.576;19.122;2022-09-09T22:08:50;22.10;78.60
14873;DHT22;7528;48.576;19.122;2022-09-09T22:13:55;22.00;79.40
14873;DHT22;7528;48.576;19.122;2022-09-09T22:18:59;21.90;79.10
14873;DHT22;7528;48.576;19.122;2022-09-09T22:24:04;21.80;80.90
14873;DHT22;7528;48.576;19.122;2022-09-09T22:29:09;21.70;81.80
14873;DHT22;7528;48.576;19.122;2022-09-09T22:34:12;21.70;81.40
14873;DHT22;7528;48.576;19.122;2022-09-09T22:39:15;21.70;81.30
14873;DHT22;7528;48.576;19.122;2022-09-09T22:44:21;21.70;81.50
14873;DHT22;7528;48.576;19.122;2022-09-09T22:49:24;21.60;81.90
14873;DHT22;7528;48.576;19.122;2022-09-09T22:54:27;21.60;82.60
14873;DHT22;7528;48.576;19.122;2022-09-09T22:59:32;21.60;82.70
14873;DHT22;7528;48.576;19.122;2022-09-09T23:04:35;21.50;83.10
14873;DHT22;7528;48.576;19.122;2022-09-09T23:09:39;21.50;83.80
14873;DHT22;7528;48.576;19.122;2022-09-09T23:14:43;21.50;84.00
14873;DHT22;7528;48.576;19.122;2022-09-09T23:19:47;21.50;84.00
14873;DHT22;7528;48.576;19.122;2022-09-09T23:24:53;21.40;85.00
14873;DHT22;7528;48.576;19.122;2022-09-09T23:29:59;21.40;85.70
14873;DHT22;7528;48.576;19.122;2022-09-09T23:35:02;21.30;85.90
14873;DHT22;7528;48.576;19.122;2022-09-09T23:40:07;21.30;86.30
14873;DHT22;7528;48.576;19.122;2022-09-09T23:45:11;21.30;86.70
14873;DHT22;7528;48.576;19.122;2022-09-09T23:50:15;21.30;87.60
14873;DHT22;7528;48.576;19.122;2022-09-09T23:55:19;21.30;87.80
